createdAt,value
2019-05-23T00:01:58.582Z,36.60
2019-05-23T00:04:35.175Z,38.17
2019-05-23T00:07:11.263Z,29.77
2019-05-23T00:09:44.150Z,37.03
2019-05-23T00:12:35.275Z,38.20
2019-05-23T00:15:15.714Z,34.67
2019-05-23T00:17:50.149Z,32.70
2019-05-23T00:20:23.341Z,30.37
2019-05-23T00:22:54.958Z,36.23
2019-05-23T00:25:29.475Z,34.83
2019-05-23T00:28:02.612Z,34.00
2019-05-23T00:30:56.678Z,29.70
2019-05-23T00:33:34.537Z,34.43
2019-05-23T00:36:07.373Z,32.60
2019-05-23T00:38:39.983Z,37.27
2019-05-23T00:41:15.914Z,32.77
2019-05-23T00:43:47.568Z,26.83
2019-05-23T00:46:22.058Z,35.50
2019-05-23T00:48:56.062Z,32.67
2019-05-23T00:51:28.514Z,27.50
2019-05-23T00:54:00.912Z,31.50
2019-05-23T00:56:34.795Z,37.93
2019-05-23T00:59:08.715Z,31.53
2019-05-23T01:01:42.867Z,33.67
2019-05-23T01:04:15.562Z,32.47
2019-05-23T01:06:51.095Z,33.57
2019-05-23T01:09:26.047Z,32.57
2019-05-23T01:11:58.639Z,37.70
2019-05-23T01:14:31.918Z,32.40
2019-05-23T01:17:03.806Z,31.23
2019-05-23T01:19:37.497Z,34.07
2019-05-23T01:22:11.054Z,35.57
2019-05-23T01:24:45.262Z,32.97
2019-05-23T01:27:17.713Z,33.87
2019-05-23T01:29:50.870Z,31.70
2019-05-23T01:32:25.418Z,33.03
2019-05-23T01:34:57.521Z,33.10
2019-05-23T01:37:29.492Z,31.27
2019-05-23T01:40:01.295Z,31.63
2019-05-23T01:42:33.726Z,30.77
2019-05-23T01:45:08.725Z,28.13
2019-05-23T01:47:41.406Z,35.77
2019-05-23T01:50:14.492Z,33.97
2019-05-23T01:52:48.309Z,28.73
2019-05-23T01:55:20.182Z,33.27
2019-05-23T01:57:51.932Z,37.23
2019-05-23T02:00:27.548Z,24.90
2019-05-23T02:03:00.002Z,35.17
2019-05-23T02:05:32.554Z,32.17
2019-05-23T02:08:04.857Z,28.60
2019-05-23T02:10:37.134Z,31.03
2019-05-23T02:13:08.947Z,33.20
2019-05-23T02:15:43.146Z,29.10
2019-05-23T02:18:15.666Z,35.33
2019-05-23T02:20:48.441Z,33.93
2019-05-23T02:23:20.447Z,34.13
2019-05-23T02:25:52.259Z,34.50
2019-05-23T02:28:24.185Z,35.83
2019-05-23T02:30:58.680Z,25.43
2019-05-23T02:33:31.711Z,33.43
2019-05-23T02:36:03.523Z,35.37
2019-05-23T02:38:37.523Z,34.50
2019-05-23T02:41:17.739Z,31.90
2019-05-23T02:43:51.916Z,32.40
2019-05-23T02:46:29.058Z,34.80
2019-05-23T02:49:04.824Z,35.53
2019-05-23T02:51:37.734Z,38.07
2019-05-23T02:54:14.014Z,33.53
2019-05-23T02:56:48.561Z,39.57
2019-05-23T02:59:23.506Z,38.13
2019-05-23T03:02:21.015Z,32.50
2019-05-23T03:04:52.210Z,33.87
2019-05-23T03:07:29.582Z,35.93
2019-05-23T03:10:01.982Z,36.47
2019-05-23T03:12:34.967Z,38.70
2019-05-23T03:15:08.817Z,37.40
2019-05-23T03:17:41.811Z,34.97
2019-05-23T03:20:13.917Z,35.87
2019-05-23T03:22:52.045Z,29.73
2019-05-23T03:25:41.067Z,35.10
2019-05-23T03:28:14.262Z,33.33
2019-05-23T03:30:49.085Z,34.30
2019-05-23T03:33:23.884Z,39.27
2019-05-23T03:35:59.607Z,36.67
2019-05-23T03:38:32.491Z,33.97
2019-05-23T03:41:08.171Z,34.97
2019-05-23T03:43:40.940Z,36.13
2019-05-23T03:46:15.012Z,37.87
2019-05-23T03:48:47.520Z,32.57
2019-05-23T03:51:21.070Z,33.83
2019-05-23T03:53:52.555Z,34.60
2019-05-23T03:56:26.261Z,25.73
2019-05-23T03:58:59.770Z,34.63
2019-05-23T04:01:47.143Z,32.57
2019-05-23T04:04:06.910Z,32.27
2019-05-23T04:06:39.760Z,33.13
2019-05-23T04:09:14.889Z,27.77
2019-05-23T04:11:49.191Z,34.43
2019-05-23T04:14:22.295Z,34.73
2019-05-23T04:16:55.034Z,37.33
2019-05-23T04:19:26.742Z,27.37
2019-05-23T04:21:59.433Z,31.37
2019-05-23T04:24:32.115Z,35.50
2019-05-23T04:27:04.986Z,27.60
2019-05-23T04:29:37.056Z,37.50
2019-05-23T04:32:09.877Z,37.67
2019-05-23T04:34:44.733Z,36.53
2019-05-23T04:37:16.602Z,29.07
2019-05-23T04:39:49.546Z,33.13
2019-05-23T04:42:21.591Z,37.80
2019-05-23T04:44:55.575Z,37.43
2019-05-23T04:47:28.338Z,39.50
2019-05-23T04:50:03.898Z,28.80
2019-05-23T04:52:35.447Z,38.73
2019-05-23T04:55:12.012Z,36.10
2019-05-23T04:57:44.607Z,43.70
2019-05-23T05:00:20.120Z,36.33
2019-05-23T05:02:53.327Z,39.33
2019-05-23T05:05:26.446Z,31.67
2019-05-23T05:07:59.187Z,38.97
2019-05-23T05:10:31.975Z,38.13
2019-05-23T05:13:07.212Z,40.10
2019-05-23T05:15:40.153Z,33.50
2019-05-23T05:18:13.982Z,38.93
2019-05-23T05:20:46.397Z,40.73
2019-05-23T05:23:19.304Z,36.60
2019-05-23T05:25:50.711Z,39.47
2019-05-23T05:28:23.495Z,38.93
2019-05-23T05:30:58.121Z,42.70
2019-05-23T05:33:31.070Z,39.53
2019-05-23T05:36:04.152Z,40.77
2019-05-23T05:38:35.693Z,38.80
2019-05-23T05:41:09.252Z,36.30
2019-05-23T05:43:41.040Z,41.33
2019-05-23T05:46:14.062Z,33.73
2019-05-23T05:48:47.073Z,40.63
2019-05-23T05:51:18.615Z,37.80
2019-05-23T05:53:52.069Z,38.30
2019-05-23T05:56:24.538Z,34.17
2019-05-23T05:58:55.962Z,35.90
2019-05-23T06:01:33.801Z,36.00
2019-05-23T06:04:05.582Z,34.40
2019-05-23T06:06:40.248Z,35.03
2019-05-23T06:09:17.405Z,35.33
2019-05-23T06:11:50.674Z,35.67
2019-05-23T06:14:24.059Z,47.00
2019-05-23T06:16:56.804Z,34.10
2019-05-23T06:19:30.187Z,35.37
2019-05-23T06:22:03.139Z,33.50
2019-05-23T06:24:44.031Z,36.37
2019-05-23T06:27:10.558Z,36.03
2019-05-23T06:29:43.220Z,38.97
2019-05-23T06:32:19.262Z,37.07
2019-05-23T06:34:53.908Z,37.63
2019-05-23T06:37:27.117Z,40.50
2019-05-23T06:39:58.648Z,34.70
2019-05-23T06:42:31.330Z,40.00
2019-05-23T06:45:04.572Z,42.00
2019-05-23T06:47:36.440Z,36.87
2019-05-23T06:50:12.663Z,36.87
2019-05-23T06:52:45.609Z,43.50
2019-05-23T06:55:18.335Z,40.90
2019-05-23T06:57:50.707Z,38.77
2019-05-23T07:00:23.722Z,41.33
2019-05-23T07:02:55.279Z,43.57
2019-05-23T07:05:33.703Z,45.83
2019-05-23T07:08:08.392Z,44.87
2019-05-23T07:10:43.402Z,44.30
2019-05-23T07:13:16.853Z,47.13
2019-05-23T07:15:48.808Z,47.07
2019-05-23T07:18:22.352Z,45.60
2019-05-23T07:20:53.813Z,46.13
2019-05-23T07:23:26.959Z,46.53
2019-05-23T07:25:59.523Z,50.87
2019-05-23T07:28:31.978Z,45.37
2019-05-23T07:31:05.440Z,49.43
2019-05-23T07:33:37.350Z,51.37
2019-05-23T07:36:09.195Z,45.23
2019-05-23T07:38:43.409Z,46.03
2019-05-23T07:41:16.402Z,46.80
2019-05-23T07:43:48.242Z,48.03
2019-05-23T07:46:20.010Z,50.37
2019-05-23T07:48:53.983Z,52.90
2019-05-23T07:51:29.637Z,46.67
2019-05-23T07:54:03.773Z,50.50
2019-05-23T07:56:37.187Z,49.27
2019-05-23T07:59:10.429Z,47.93
2019-05-23T08:01:45.992Z,48.20
2019-05-23T08:04:22.357Z,44.47
2019-05-23T08:06:52.834Z,42.50
2019-05-23T08:09:25.842Z,39.07
2019-05-23T08:11:57.605Z,41.67
2019-05-23T08:14:28.926Z,37.47
2019-05-23T08:17:01.779Z,32.90
2019-05-23T08:19:48.564Z,29.17
2019-05-23T08:22:09.996Z,34.67
2019-05-23T08:24:43.132Z,30.07
2019-05-23T08:27:15.735Z,76.20
2019-05-23T08:29:48.499Z,34.63
2019-05-23T08:32:20.077Z,30.60
2019-05-23T08:34:52.697Z,32.03
2019-05-23T08:37:25.694Z,26.03
2019-05-23T08:39:58.619Z,35.23
2019-05-23T08:42:31.645Z,24.23
2019-05-23T08:45:04.430Z,25.57
2019-05-23T08:47:37.566Z,26.47
2019-05-23T08:50:11.179Z,25.00
2019-05-23T08:52:43.899Z,26.00
2019-05-23T08:55:25.885Z,22.67
2019-05-23T08:57:57.882Z,25.93
2019-05-23T09:00:30.433Z,29.77
2019-05-23T09:03:02.526Z,25.70
2019-05-23T09:05:35.866Z,30.00
2019-05-23T09:08:09.532Z,27.50
2019-05-23T09:10:42.451Z,28.00
2019-05-23T09:13:14.092Z,27.17
2019-05-23T09:15:45.834Z,25.83
2019-05-23T09:18:18.630Z,26.57
2019-05-23T09:20:50.106Z,24.70
2019-05-23T09:23:21.851Z,22.70
2019-05-23T09:25:54.141Z,22.37
2019-05-23T09:28:25.932Z,20.97
2019-05-23T09:30:58.654Z,20.83
2019-05-23T09:33:30.823Z,17.07
2019-05-23T09:36:03.700Z,16.83
2019-05-23T09:38:37.066Z,17.53
2019-05-23T09:41:11.916Z,16.90
2019-05-23T09:43:45.402Z,18.63
2019-05-23T09:46:17.763Z,15.03
2019-05-23T09:48:49.342Z,16.03
2019-05-23T09:51:22.212Z,15.77
2019-05-23T09:53:55.027Z,16.13
2019-05-23T09:56:28.664Z,15.67
2019-05-23T09:59:00.239Z,14.73
2019-05-23T10:01:32.664Z,17.47
2019-05-23T10:04:05.899Z,18.17
2019-05-23T10:06:39.049Z,18.70
2019-05-23T10:09:12.490Z,19.90
2019-05-23T10:11:44.155Z,16.83
2019-05-23T10:14:31.930Z,19.93
2019-05-23T10:17:03.684Z,16.83
2019-05-23T10:19:36.681Z,17.53
2019-05-23T10:22:09.701Z,17.97
2019-05-23T10:24:42.144Z,74.77
2019-05-23T10:27:14.339Z,21.00
2019-05-23T10:29:46.979Z,15.80
2019-05-23T10:32:19.994Z,21.00
2019-05-23T10:34:53.372Z,15.80
2019-05-23T10:37:26.169Z,13.73
2019-05-23T10:39:58.942Z,11.93
2019-05-23T10:42:32.323Z,11.83
2019-05-23T10:45:06.897Z,13.77
2019-05-23T10:47:38.457Z,12.87
2019-05-23T10:50:11.142Z,14.27
2019-05-23T10:52:43.508Z,12.73
2019-05-23T10:55:18.316Z,11.83
2019-05-23T10:57:50.831Z,11.67
2019-05-23T11:00:27.643Z,11.73
2019-05-23T11:03:00.074Z,12.07
2019-05-23T11:05:32.581Z,11.93
2019-05-23T11:08:03.886Z,11.73
2019-05-23T11:10:35.645Z,13.10
2019-05-23T11:13:08.468Z,14.03
2019-05-23T11:15:40.974Z,14.07
2019-05-23T11:18:13.399Z,14.77
2019-05-23T11:20:46.192Z,13.87
2019-05-23T11:23:19.773Z,10.37
2019-05-23T11:25:51.601Z,12.77
2019-05-23T11:28:23.655Z,15.50
2019-05-23T11:30:57.026Z,14.23
2019-05-23T11:33:30.780Z,14.53
2019-05-23T11:36:03.087Z,14.30
2019-05-23T11:38:34.828Z,13.13
2019-05-23T11:41:07.370Z,12.13
2019-05-23T11:43:40.045Z,12.07
2019-05-23T11:46:13.130Z,12.33
2019-05-23T11:48:46.508Z,15.20
2019-05-23T11:51:24.470Z,12.57
2019-05-23T11:54:06.695Z,13.87
2019-05-23T11:56:28.329Z,12.87
2019-05-23T11:59:01.739Z,12.53
2019-05-23T12:01:51.054Z,13.27
2019-05-23T12:04:23.645Z,14.30
2019-05-23T12:06:56.841Z,11.97
2019-05-23T12:09:28.729Z,12.63
2019-05-23T12:12:01.147Z,12.30
2019-05-23T12:14:35.403Z,11.77
2019-05-23T12:17:08.741Z,12.83
2019-05-23T12:19:42.323Z,9.47
2019-05-23T12:22:16.330Z,11.47
2019-05-23T12:24:49.294Z,11.60
2019-05-23T12:27:20.629Z,11.13
2019-05-23T12:29:52.140Z,11.23
2019-05-23T12:32:24.050Z,13.67
2019-05-23T12:35:10.366Z,13.47
2019-05-23T12:37:30.394Z,12.60
2019-05-23T12:40:03.359Z,10.97
2019-05-23T12:42:33.883Z,8.93
2019-05-23T12:45:07.102Z,9.17
2019-05-23T12:47:42.219Z,10.00
2019-05-23T12:50:14.106Z,8.07
2019-05-23T12:52:46.479Z,7.50
2019-05-23T12:55:16.581Z,12.77
2019-05-23T12:57:47.827Z,8.07
2019-05-23T13:00:27.154Z,5.30
2019-05-23T13:02:57.375Z,5.30
2019-05-23T13:05:28.410Z,7.43
2019-05-23T13:07:59.796Z,7.13
2019-05-23T13:10:30.378Z,8.73
2019-05-23T13:13:00.901Z,12.53
2019-05-23T13:15:31.725Z,8.73
2019-05-23T13:18:01.996Z,5.87
2019-05-23T13:20:33.417Z,4.23
2019-05-23T13:23:04.088Z,5.93
2019-05-23T13:25:35.574Z,6.23
2019-05-23T13:28:07.118Z,7.17
2019-05-23T13:30:38.136Z,7.47
2019-05-23T13:33:08.258Z,10.43
2019-05-23T13:35:39.673Z,7.80
2019-05-23T13:38:10.179Z,9.87
2019-05-23T13:40:40.794Z,5.43
2019-05-23T13:43:11.027Z,5.20
2019-05-23T13:45:41.327Z,6.90
2019-05-23T13:48:11.839Z,14.03
2019-05-23T13:50:43.140Z,73.27
2019-05-23T13:53:16.402Z,9.90
2019-05-23T13:55:51.721Z,3.97
2019-05-23T13:58:22.761Z,6.40
2019-05-23T14:00:55.566Z,6.27
2019-05-23T14:03:29.448Z,6.03
2019-05-23T14:06:00.001Z,5.50
2019-05-23T14:08:30.711Z,5.67
2019-05-23T14:11:00.930Z,5.03
2019-05-23T14:13:33.355Z,5.10
2019-05-23T14:16:07.195Z,7.80
2019-05-23T14:18:38.567Z,4.77
2019-05-23T14:21:08.636Z,4.43
2019-05-23T14:23:39.838Z,4.77
2019-05-23T14:26:11.714Z,5.27
2019-05-23T14:28:41.911Z,4.17
2019-05-23T14:31:13.612Z,5.23
2019-05-23T14:33:52.242Z,5.57
2019-05-23T14:36:43.499Z,4.50
2019-05-23T14:39:16.322Z,5.63
2019-05-23T14:41:51.172Z,5.20
2019-05-23T14:44:22.387Z,4.53
2019-05-23T14:46:54.994Z,3.40
2019-05-23T14:49:26.724Z,3.93
2019-05-23T14:51:59.765Z,4.30
2019-05-23T14:54:33.264Z,4.20
2019-05-23T14:57:06.955Z,3.33
2019-05-23T14:59:38.595Z,5.23
2019-05-23T15:02:10.862Z,5.63
2019-05-23T15:04:43.154Z,6.50
2019-05-23T15:07:14.826Z,4.37
2019-05-23T15:09:47.129Z,8.73
2019-05-23T15:12:19.901Z,8.67
2019-05-23T15:14:52.442Z,3.13
2019-05-23T15:17:25.767Z,4.40
2019-05-23T15:19:57.420Z,3.43
2019-05-23T15:22:30.062Z,5.07
2019-05-23T15:25:02.561Z,3.20
2019-05-23T15:27:34.470Z,6.00
2019-05-23T15:30:07.377Z,5.00
2019-05-23T15:32:39.158Z,5.73
2019-05-23T15:35:11.572Z,4.60
2019-05-23T15:37:43.591Z,4.17
2019-05-23T15:40:17.655Z,4.70
2019-05-23T15:42:49.563Z,5.57
2019-05-23T15:45:21.523Z,4.73
2019-05-23T15:47:55.033Z,5.77
2019-05-23T15:50:28.570Z,15.10
2019-05-23T15:53:13.642Z,5.43
2019-05-23T15:55:50.771Z,5.97
2019-05-23T15:58:33.326Z,3.57
2019-05-23T16:01:14.730Z,4.80
2019-05-23T16:03:47.218Z,4.40
2019-05-23T16:06:21.903Z,4.23
2019-05-23T16:08:55.192Z,6.57
2019-05-23T16:11:28.014Z,5.67
2019-05-23T16:14:00.348Z,4.77
2019-05-23T16:16:32.266Z,4.63
2019-05-23T16:21:55.302Z,7.47
2019-05-23T16:24:26.921Z,5.63
2019-05-23T16:27:00.965Z,5.13
2019-05-23T16:29:34.281Z,6.23
2019-05-23T16:32:06.168Z,5.53
2019-05-23T16:34:38.946Z,7.93
2019-05-23T16:37:11.880Z,6.90
2019-05-23T16:39:48.253Z,5.33
2019-05-23T16:42:19.198Z,4.77
2019-05-23T16:44:50.884Z,5.80
2019-05-23T16:47:31.358Z,4.53
2019-05-23T16:50:04.419Z,4.60
2019-05-23T16:52:38.363Z,5.87
2019-05-23T16:55:11.910Z,4.17
2019-05-23T16:57:54.719Z,6.17
2019-05-23T17:00:44.988Z,6.33
2019-05-23T17:03:21.408Z,4.87
2019-05-23T17:05:57.198Z,3.50
2019-05-23T17:08:34.431Z,5.03
2019-05-23T17:11:10.697Z,6.77
2019-05-23T17:13:55.738Z,4.97
2019-05-23T17:16:28.847Z,8.50
2019-05-23T17:19:06.030Z,4.93
2019-05-23T17:21:39.484Z,5.67
2019-05-23T17:24:11.866Z,5.07
2019-05-23T17:26:55.366Z,5.27
2019-05-23T17:29:37.438Z,7.93
2019-05-23T17:32:10.575Z,5.87
2019-05-23T17:34:44.030Z,4.63
2019-05-23T17:37:17.881Z,5.90
2019-05-23T17:39:53.222Z,6.00
2019-05-23T17:42:23.769Z,5.37
2019-05-23T17:44:56.010Z,6.27
2019-05-23T17:47:28.693Z,4.53
2019-05-23T17:50:04.238Z,10.93
2019-05-23T17:52:36.541Z,5.57
2019-05-23T17:55:09.102Z,5.83
2019-05-23T17:57:41.458Z,7.00
2019-05-23T18:00:15.937Z,6.43
2019-05-23T18:02:47.491Z,8.97
2019-05-23T18:05:20.124Z,7.90
2019-05-23T18:07:52.989Z,7.13
2019-05-23T18:10:43.310Z,7.53
2019-05-23T18:13:00.551Z,7.83
2019-05-23T18:15:32.170Z,6.73
2019-05-23T18:18:04.845Z,8.10
2019-05-23T18:20:37.612Z,8.90
2019-05-23T18:23:10.580Z,6.27
2019-05-23T18:25:41.242Z,7.07
2019-05-23T18:28:12.766Z,7.70
2019-05-23T18:31:05.955Z,13.10
2019-05-23T18:33:34.270Z,13.63
2019-05-23T18:36:06.105Z,8.53
2019-05-23T18:38:38.042Z,6.87
2019-05-23T18:41:09.588Z,8.73
2019-05-23T18:43:39.954Z,8.47
2019-05-23T18:46:13.402Z,10.27
2019-05-23T18:48:46.730Z,9.67
2019-05-23T18:51:18.154Z,13.23
2019-05-23T18:53:49.300Z,10.10
2019-05-23T18:56:19.318Z,9.13
2019-05-23T18:58:51.912Z,7.63
2019-05-23T19:01:26.483Z,6.47
2019-05-23T19:03:57.081Z,7.93
2019-05-23T19:06:26.793Z,4.57
2019-05-23T19:08:58.295Z,3.50
2019-05-23T19:11:29.259Z,6.23
2019-05-23T19:14:03.227Z,6.37
2019-05-23T19:16:35.143Z,5.30
2019-05-23T19:19:06.932Z,6.50
2019-05-23T19:21:38.490Z,5.17
2019-05-23T19:24:09.226Z,5.10
2019-05-23T19:26:41.483Z,3.83
2019-05-23T19:29:13.548Z,5.33
2019-05-23T19:31:45.006Z,4.63
2019-05-23T19:34:15.777Z,6.47
2019-05-23T19:36:47.379Z,3.70
2019-05-23T19:39:20.366Z,2.73
2019-05-23T19:41:52.500Z,3.87
2019-05-23T19:44:23.492Z,3.30
2019-05-23T19:46:57.097Z,4.33
2019-05-23T19:49:28.200Z,4.70
2019-05-23T19:51:58.660Z,4.23
2019-05-23T19:54:29.214Z,4.63
2019-05-23T19:56:59.347Z,4.83
2019-05-23T19:59:30.478Z,3.40
2019-05-23T20:02:11.674Z,3.43
2019-05-23T20:04:44.413Z,3.63
2019-05-23T20:07:15.720Z,4.93
2019-05-23T20:09:49.221Z,3.77
2019-05-23T20:12:20.750Z,4.87
2019-05-23T20:14:52.123Z,5.87
2019-05-23T20:17:22.918Z,7.13
2019-05-23T20:19:53.087Z,3.33
2019-05-23T20:22:22.611Z,4.03
2019-05-23T20:24:52.691Z,3.73
2019-05-23T20:27:22.890Z,6.27
2019-05-23T20:29:54.380Z,5.33
2019-05-23T20:32:25.923Z,9.10
2019-05-23T20:34:56.994Z,3.40
2019-05-23T20:37:29.230Z,3.87
2019-05-23T20:40:00.159Z,3.70
2019-05-23T20:42:30.686Z,4.43
2019-05-23T20:45:00.843Z,4.87
2019-05-23T20:47:32.487Z,5.10
2019-05-23T20:50:04.062Z,4.27
2019-05-23T20:52:36.879Z,6.23
2019-05-23T20:55:08.957Z,4.83
2019-05-23T20:57:38.630Z,5.13
2019-05-23T21:00:11.842Z,5.57
2019-05-23T21:02:41.933Z,8.03
2019-05-23T21:05:13.303Z,5.73
2019-05-23T21:07:43.588Z,8.57
2019-05-23T21:10:17.971Z,7.53
2019-05-23T21:12:49.875Z,6.53
2019-05-23T21:15:21.853Z,8.57
2019-05-23T21:17:53.222Z,9.80
2019-05-23T21:20:25.138Z,8.07
2019-05-23T21:22:56.441Z,9.00
2019-05-23T21:25:27.185Z,10.47
2019-05-23T21:27:58.148Z,8.47
2019-05-23T21:30:29.241Z,7.27
2019-05-23T21:33:00.586Z,6.80
2019-05-23T21:35:33.081Z,7.67
2019-05-23T21:38:04.554Z,8.20
2019-05-23T21:40:41.353Z,7.63
2019-05-23T21:43:12.649Z,9.33
2019-05-23T21:45:44.190Z,9.10
2019-05-23T21:48:15.361Z,7.47
2019-05-23T21:50:45.582Z,7.80
2019-05-23T21:53:16.643Z,10.27
2019-05-23T21:55:46.726Z,10.93
2019-05-23T21:58:18.526Z,7.60
2019-05-23T22:01:08.894Z,7.43
2019-05-23T22:03:41.676Z,7.40
2019-05-23T22:06:16.157Z,7.50
2019-05-23T22:08:50.241Z,11.27
2019-05-23T22:11:20.549Z,7.23
2019-05-23T22:13:50.647Z,10.60
2019-05-23T22:16:22.284Z,13.37
2019-05-23T22:18:53.423Z,9.20
2019-05-23T22:21:23.534Z,10.80
2019-05-23T22:23:54.379Z,8.40
2019-05-23T22:26:25.388Z,12.03
2019-05-23T22:28:56.742Z,8.60
2019-05-23T22:31:27.438Z,8.70
2019-05-23T22:34:00.494Z,8.83
2019-05-23T22:36:33.605Z,8.10
2019-05-23T22:39:10.056Z,9.40
2019-05-23T22:41:41.802Z,8.57
2019-05-23T22:44:12.326Z,11.77
2019-05-23T22:46:43.298Z,11.87
2019-05-23T22:49:15.415Z,10.93
2019-05-23T22:51:47.673Z,8.50
2019-05-23T22:54:19.385Z,8.43
2019-05-23T22:56:52.529Z,8.30
2019-05-23T22:59:22.891Z,8.87
2019-05-23T23:01:54.133Z,9.90
2019-05-23T23:04:26.028Z,7.10
2019-05-23T23:06:57.441Z,6.07
2019-05-23T23:09:29.464Z,10.13
2019-05-23T23:11:59.847Z,6.57
2019-05-23T23:14:30.866Z,6.93
2019-05-23T23:17:00.860Z,7.00
2019-05-23T23:19:33.435Z,7.27
2019-05-23T23:22:05.885Z,8.47
2019-05-23T23:24:36.811Z,8.27
2019-05-23T23:27:08.108Z,9.30
2019-05-23T23:29:41.373Z,8.83
2019-05-23T23:32:12.632Z,9.73
2019-05-23T23:34:44.499Z,6.13
2019-05-23T23:37:16.564Z,8.77
2019-05-23T23:39:47.903Z,6.80
2019-05-23T23:42:18.434Z,12.73
2019-05-23T23:44:49.001Z,10.00
2019-05-23T23:47:38.107Z,10.23
2019-05-23T23:50:26.314Z,7.93
2019-05-23T23:53:14.648Z,8.83
2019-05-23T23:56:03.243Z,7.27
2019-05-23T23:58:33.534Z,8.37
